Clipper Imabari — 3ERD7 — position and weather

sailwx.info

Track history (hours):
 
Tides and Currents Weather Stations Pressure Air Temp Water Temp Dewpoint Dewpoint Depression Visibility Wind Speed Wind Dir Waves Ship Positions

Clipper Imabari

Last reported at 2015-May-26 19:29 UTC. Time now 2015-May-28 18:10 UTC.
Position N 50°01' W 002°41'.

Length 169 m; draft 10.1 m.

Type: Ship. MMSI: 370016000.

Date/timePositionNaut miles runAvg speedWind from/ knotsBaromVisibWave heightAir tempDewpointWater temp
2015-May-26 19:29N 50°01' W 002°41'5111.9
2015-May-26 15:10N 50°15' W 001°24'6711.5
2015-May-26 09:23N 50°33' E 000°17'1012.8
2015-May-26 08:34N 50°36' E 000°33'1212.4
2015-May-26 07:34N 50°43' E 000°49'1211.6
2015-May-26 06:33N 50°51' E 001°03'1211.0
2015-May-26 05:27N 50°59' E 001°17'910.0
2015-May-26 04:33N 51°05' E 001°28'1111.1
2015-May-26 03:33N 51°11' E 001°42'1212.3
2015-May-26 02:34N 51°22' E 001°51'1312.8
2015-May-26 01:34N 51°32' E 002°04'1312.8
2015-May-26 00:33N 51°42' E 002°17'7911.3
2015-May-25 17:33N 52°43' E 003°39'1212.2
2015-May-25 16:33N 52°52' E 003°52'1312.6
2015-May-25 15:33N 53°01' E 004°08'1212.2
2015-May-25 14:32N 53°09' E 004°23'1812.1
2015-May-25 13:05N 53°26' E 004°33'611.5
2015-May-25 12:34N 53°31' E 004°37'1411.4
2015-May-25 11:18N 53°45' E 004°45'1011.4
2015-May-25 10:24N 53°54' E 004°51'1011.4
2015-May-25 09:32N 54°03' E 004°58'1111.6
2015-May-25 08:33N 54°13' E 005°08'1211.9
2015-May-25 07:33N 54°24' E 005°18'25710.6
2015-May-24 07:24N 57°48' E 009°58'8 9.9
2015-May-24 06:34N 57°48' E 010°13'1110.8
2015-May-24 05:32N 57°48' E 010°34'10 9.7
2015-May-24 04:29N 57°45' E 010°52'1011.3
2015-May-24 03:34N 57°38' E 011°06'1111.0
2015-May-24 02:33N 57°31' E 011°22'1110.8
2015-May-24 01:34N 57°21' E 011°31'1111.1
2015-May-24 00:33N 57°11' E 011°38'1111.1
2015-May-23 23:33N 57°00' E 011°45'1110.9
2015-May-23 22:33N 56°50' E 011°52'10 9.8
2015-May-23 21:34N 56°41' E 011°45'1512.1
2015-May-23 20:18N 56°31' E 011°23'2010.7
2015-May-23 18:27N 56°14' E 011°05'8510.3
2015-May-23 10:13N 54°50' E 010°50'811.1
2015-May-23 09:28N 54°42' E 010°47'910.1
2015-May-23 08:33N 54°36' E 010°59'1110.7
2015-May-23 07:34N 54°35' E 011°17'1211.7
2015-May-23 06:33N 54°29' E 011°35'1211.6
2015-May-23 05:34N 54°26' E 011°54'18610.4
2015-May-23 05:32N 54°09' E 012°06'2019.9
2015-May-23 04:33N 54°28' E 012°12'5811.0
2015-May-22 23:18N 54°58' E 013°38'911.4
2015-May-22 22:33N 55°01' E 013°52'1110.7
2015-May-22 21:33N 55°07' E 014°07'1111.2
2015-May-22 20:34N 55°15' E 014°20'1211.5
2015-May-22 19:33N 55°24' E 014°33'1111.4
2015-May-22 18:33N 55°31' E 014°50'1211.7
2015-May-22 17:33N 55°36' E 015°08'1711.5
2015-May-22 16:06N 55°44' E 015°35'811.4
2015-May-22 15:26N 55°46' E 015°48'  
2015-May-17 17:14N 55°30' E 015°24'1 1.5
2015-May-17 16:33N 55°30' E 015°22'1212.3
2015-May-17 15:33N 55°27' E 015°01'1313.2
2015-May-17 14:33N 55°23' E 014°39'1312.8
2015-May-17 13:33N 55°14' E 014°24'2512.3
2015-May-17 11:30N 55°11' E 013°40'1213.0
2015-May-17 10:33N 55°12' E 013°19'1313.4
2015-May-17 09:33N 55°14' E 012°55'1211.8
2015-May-17 08:33N 55°21' E 012°39'1312.5
2015-May-17 07:33N 55°34' E 012°42'1313.3
2015-May-17 06:33N 55°47' E 012°42'1313.0
2015-May-17 05:33N 55°60' E 012°38'1111.0
2015-May-17 04:33N 56°09' E 012°27'1313.4
2015-May-17 03:33N 56°16' E 012°07'1312.7
2015-May-17 02:33N 56°28' E 011°59'1413.6
2015-May-17 01:33N 56°41' E 011°53'1413.9
2015-May-17 00:33N 56°55' E 011°45'1413.7
2015-May-16 23:33N 57°07' E 011°37'1414.1
2015-May-16 22:33N 57°21' E 011°28'1313.3
2015-May-16 21:33N 57°32' E 011°15'1313.4
2015-May-16 20:33N 57°39' E 010°54'  
Track history (hours):
 
Tides and Currents Weather Stations Pressure Air Temp Water Temp Dewpoint Dewpoint Depression Visibility Wind Speed Wind Dir Waves Ship Positions

Clipper Imabari

Last reported at 2015-May-26 19:29 UTC. Time now 2015-May-28 18:10 UTC.
Position N 50°01' W 002°41'.

Length 169 m; draft 10.1 m.

Type: Ship. MMSI: 370016000.

Date/timePositionNaut miles runAvg speedWind from/ knotsBaromVisibWave heightAir tempDewpointWater temp
2015-May-26 19:29N 50°01' W 002°41'5111.9
2015-May-26 15:10N 50°15' W 001°24'6711.5
2015-May-26 09:23N 50°33' E 000°17'1012.8
2015-May-26 08:34N 50°36' E 000°33'1212.4
2015-May-26 07:34N 50°43' E 000°49'1211.6
2015-May-26 06:33N 50°51' E 001°03'1211.0
2015-May-26 05:27N 50°59' E 001°17'910.0
2015-May-26 04:33N 51°05' E 001°28'1111.1
2015-May-26 03:33N 51°11' E 001°42'1212.3
2015-May-26 02:34N 51°22' E 001°51'1312.8
2015-May-26 01:34N 51°32' E 002°04'1312.8
2015-May-26 00:33N 51°42' E 002°17'7911.3
2015-May-25 17:33N 52°43' E 003°39'1212.2
2015-May-25 16:33N 52°52' E 003°52'1312.6
2015-May-25 15:33N 53°01' E 004°08'1212.2
2015-May-25 14:32N 53°09' E 004°23'1812.1
2015-May-25 13:05N 53°26' E 004°33'611.5
2015-May-25 12:34N 53°31' E 004°37'1411.4
2015-May-25 11:18N 53°45' E 004°45'1011.4
2015-May-25 10:24N 53°54' E 004°51'1011.4
2015-May-25 09:32N 54°03' E 004°58'1111.6
2015-May-25 08:33N 54°13' E 005°08'1211.9
2015-May-25 07:33N 54°24' E 005°18'25710.6
2015-May-24 07:24N 57°48' E 009°58'8 9.9
2015-May-24 06:34N 57°48' E 010°13'1110.8
2015-May-24 05:32N 57°48' E 010°34'10 9.7
2015-May-24 04:29N 57°45' E 010°52'1011.3
2015-May-24 03:34N 57°38' E 011°06'1111.0
2015-May-24 02:33N 57°31' E 011°22'1110.8
2015-May-24 01:34N 57°21' E 011°31'1111.1
2015-May-24 00:33N 57°11' E 011°38'1111.1
2015-May-23 23:33N 57°00' E 011°45'1110.9
2015-May-23 22:33N 56°50' E 011°52'10 9.8
2015-May-23 21:34N 56°41' E 011°45'1512.1
2015-May-23 20:18N 56°31' E 011°23'2010.7
2015-May-23 18:27N 56°14' E 011°05'8510.3
2015-May-23 10:13N 54°50' E 010°50'811.1
2015-May-23 09:28N 54°42' E 010°47'910.1
2015-May-23 08:33N 54°36' E 010°59'1110.7
2015-May-23 07:34N 54°35' E 011°17'1211.7
2015-May-23 06:33N 54°29' E 011°35'1211.6
2015-May-23 05:34N 54°26' E 011°54'18610.4
2015-May-23 05:32N 54°09' E 012°06'2019.9
2015-May-23 04:33N 54°28' E 012°12'5811.0
2015-May-22 23:18N 54°58' E 013°38'911.4
2015-May-22 22:33N 55°01' E 013°52'1110.7
2015-May-22 21:33N 55°07' E 014°07'1111.2
2015-May-22 20:34N 55°15' E 014°20'1211.5
2015-May-22 19:33N 55°24' E 014°33'1111.4
2015-May-22 18:33N 55°31' E 014°50'1211.7
2015-May-22 17:33N 55°36' E 015°08'1711.5
2015-May-22 16:06N 55°44' E 015°35'811.4
2015-May-22 15:26N 55°46' E 015°48'  
2015-May-17 17:14N 55°30' E 015°24'1 1.5
2015-May-17 16:33N 55°30' E 015°22'1212.3
2015-May-17 15:33N 55°27' E 015°01'1313.2
2015-May-17 14:33N 55°23' E 014°39'1312.8
2015-May-17 13:33N 55°14' E 014°24'2512.3
2015-May-17 11:30N 55°11' E 013°40'1213.0
2015-May-17 10:33N 55°12' E 013°19'1313.4
2015-May-17 09:33N 55°14' E 012°55'1211.8
2015-May-17 08:33N 55°21' E 012°39'1312.5
2015-May-17 07:33N 55°34' E 012°42'1313.3
2015-May-17 06:33N 55°47' E 012°42'1313.0
2015-May-17 05:33N 55°60' E 012°38'1111.0
2015-May-17 04:33N 56°09' E 012°27'1313.4
2015-May-17 03:33N 56°16' E 012°07'1312.7
2015-May-17 02:33N 56°28' E 011°59'1413.6
2015-May-17 01:33N 56°41' E 011°53'1413.9
2015-May-17 00:33N 56°55' E 011°45'1413.7
2015-May-16 23:33N 57°07' E 011°37'1414.1
2015-May-16 22:33N 57°21' E 011°28'1313.3
2015-May-16 21:33N 57°32' E 011°15'1313.4
2015-May-16 20:33N 57°39' E 010°54'  

Dump ship's entire track history